Terminal Aerodrome Forecast
Issued by NWS

Home | Current Version | Previous Version | Text Only | Print | Product List | Glossary On
Versions: 1 2 3 4 5 6 7 8 9 10 11 12 13 14 15 16 17 18 19 20 21 22
741
FTUS43 KLSX 101138
TAFSUS
TAF
KSUS 101138Z 1012/1112 29008KT P6SM BKN150
     FM101700 27005KT P6SM OVC050
     FM102000 23004KT 2SM -SN BR OVC015
     FM110300 08004KT 4SM -SN BR OVC015
     FM110700 04004KT P6SM OVC040=

USA.gov is the U.S. government's official web portal to all federal, state and local government web resources and services.